Latest Weather Observations for Devonport Airport

IDT60801

Issued at 7:31 am EDT Monday 2 March 2015 (issued every 30 minutes, with the page automatically refreshed every 10 minutes)

About weather observations | Map of weather stations | Latest weather observations for TAS | Other Formats
Station Details ID: 091126 Name: DEVONPORT AIRPORT Lat: -41.17 Lon: 146.43 Height: 8.0 m
Data from the previous 72 hours. | See also: Recent months at Devonport Airport
Date/Time
EDT
Temp
°C
App
Temp
°C
Dew
Point
Rel
Hum
%
Delta-T
°C
Wind Press
QNH
hPa
Press
MSL
hPa
Rain
since 9 am
mm
Dir
 
Spd
km/h
Gust
km/h
Spd
kts
Gust
kts
02/07:00am 10.0 5.7 7.1 82 1.4 S 19 22 10 12 1017.5 1017.5 -
02/06:30am 10.6 5.7 6.7 77 1.8 S 22 26 12 14 1017.2 1017.2 -
02/05:30am 10.3 5.9 7.2 81 1.5 SSE 20 22 11 12 1016.6 1016.6 -
02/05:00am 10.4 6.4 6.7 78 1.7 S 17 20 9 11 1017.0 1017.0 -
02/04:30am 10.9 6.3 6.5 74 2.1 SSE 20 26 11 14 1017.0 1017.0 -
02/04:00am 10.8 6.2 6.4 74 2.1 SSE 20 24 11 13 1017.0 1017.0 -
02/03:30am 11.2 6.1 6.1 71 2.4 SSE 22 28 12 15 1016.9 1016.9 -
02/03:00am 10.7 6.0 6.1 73 2.1 SSE 20 24 11 13 1016.9 1016.9 -
02/02:30am 10.9 6.2 6.1 72 2.2 SSE 20 24 11 13 1016.7 1016.7 -
02/02:00am 11.1 6.3 5.8 70 2.5 SSE 20 24 11 13 1016.8 1016.8 -
02/01:30am 10.8 6.7 6.0 72 2.2 SSE 17 20 9 11 1017.0 1017.0 -
02/01:00am 10.8 6.7 6.2 73 2.1 SSE 17 20 9 11 1016.7 1016.7 -
 
Date/Time
EDT
Temp
°C
App
Temp
°C
Dew
Point
Rel
Hum
%
Delta-T
°C
Wind Press
QNH
hPa
Press
MSL
hPa
Rain
since 9 am
mm
Dir
 
Spd
km/h
Gust
km/h
Spd
kts
Gust
kts
01/11:30pm 10.4 8.3 6.0 74 2.0 SE 6 9 3 5 1016.6 1016.6 -
01/11:00pm 11.0 9.7 6.2 72 2.2 S 2 7 1 4 1016.4 1016.4 -
01/10:30pm 10.8 9.0 5.6 70 2.4 SSW 4 7 2 4 1016.5 1016.5 -
01/10:00pm 12.5 10.4 6.5 67 2.9 S 7 9 4 5 1016.0 1016.0 -
01/09:30pm 13.9 11.3 6.0 59 3.8 SW 9 13 5 7 1015.7 1015.7 -
01/09:00pm 15.4 11.3 6.4 55 4.4 SW 17 22 9 12 1015.1 1015.1 -
01/08:30pm 15.3 12.0 6.3 55 4.4 SW 13 17 7 9 1014.7 1014.7 -
01/08:00pm 16.6 12.5 6.4 51 5.0 SW 17 22 9 12 1014.3 1014.3 -
01/07:30pm 18.1 13.7 6.6 47 5.7 SW 19 26 10 14 1013.8 1013.8 -
01/07:00pm 19.0 14.6 7.4 47 5.9 SW 20 32 11 17 1013.3 1013.3 -
01/06:30pm 19.5 14.1 8.2 48 5.8 WSW 26 35 14 19 1012.7 1012.7 -
01/05:30pm 21.1 15.1 7.0 40 7.2 WSW 28 39 15 21 1011.9 1011.9 -
01/05:00pm 21.6 15.6 8.8 44 6.8 WSW 30 39 16 21 1011.5 1011.5 -
01/04:30pm 22.0 16.4 8.9 43 7.0 SW 28 39 15 21 1011.3 1011.3 -
01/04:00pm 21.7 17.8 9.6 46 6.5 WSW 20 30 11 16 1011.0 1011.0 -
01/03:30pm 21.7 17.4 9.3 45 6.6 WSW 22 30 12 16 1010.9 1010.9 -
01/03:00pm 22.0 16.8 8.9 43 7.0 SW 26 35 14 19 1010.7 1010.7 -
01/02:30pm 22.1 17.4 9.3 44 6.9 W 24 41 13 22 1010.4 1010.4 -
01/02:00pm 20.9 15.5 8.2 44 6.6 W 26 35 14 19 1010.2 1010.2 -
01/01:30pm 20.9 16.6 9.5 48 6.1 WSW 22 33 12 18 1009.9 1009.9 -
01/01:00pm 19.6 14.7 8.6 49 5.7 WSW 24 35 13 19 1010.0 1010.0 -
01/12:30pm 20.1 16.0 8.8 48 5.9 SW 20 28 11 15 1009.8 1009.8 -
01/12:00pm 19.9 15.9 8.9 49 5.8 WSW 20 32 11 17 1009.6 1009.6 -
01/11:30am 18.6 13.7 8.6 52 5.2 SW 24 37 13 20 1009.4 1009.4 -
01/11:00am 18.8 13.9 9.8 56 4.8 WSW 26 35 14 19 1009.0 1009.0 -
01/10:30am 17.8 12.4 9.4 58 4.4 WSW 28 37 15 20 1008.6 1008.6 -
01/10:00am 17.1 13.7 10.7 66 3.4 W 19 24 10 13 1008.2 1008.2 -
01/09:30am 16.6 13.1 10.2 66 3.4 WSW 19 32 10 17 1007.7 1007.7 -
01/09:00am 16.1 13.0 10.4 69 3.0 W 17 22 9 12 1007.3 1007.3 -
01/08:30am 15.1 12.2 10.9 76 2.2 WSW 17 22 9 12 1006.7 1006.7 -
01/08:00am 13.7 11.1 10.7 82 1.6 WSW 15 20 8 11 1006.1 1006.1 -
01/07:30am 11.7 9.2 9.8 88 1.0 WSW 13 15 7 8 1005.4 1005.4 -
01/07:00am 11.9 9.8 9.6 86 1.2 SW 11 15 6 8 1004.8 1004.8 -
01/06:30am 12.1 9.6 9.8 86 1.2 WSW 13 17 7 9 1004.1 1004.1 -
01/06:00am 11.4 8.8 9.3 87 1.1 W 13 15 7 8 1003.5 1003.5 -
01/05:30am 11.6 8.3 9.7 88 1.0 W 17 20 9 11 1002.9 1002.9 -
01/05:00am 11.7 9.2 9.6 87 1.1 WSW 13 15 7 8 1002.8 1002.8 -
01/04:30am 12.2 9.9 10.6 90 0.8 W 13 20 7 11 1002.7 1002.7 -
01/04:00am 11.6 8.4 10.0 90 0.8 W 17 20 9 11 1002.5 1002.5 -
01/03:30am 11.5 9.9 10.1 91 0.7 W 9 13 5 7 1002.5 1002.5 -
01/03:00am 12.3 11.2 10.5 89 0.9 SW 7 9 4 5 1002.4 1002.4 -
01/02:30am 13.3 12.4 11.4 88 1.0 SW 7 9 4 5 1002.3 1002.3 -
01/02:00am 13.4 11.7 11.1 86 1.2 WSW 11 13 6 7 1002.4 1002.4 -
01/01:30am 14.5 11.4 12.2 86 1.2 W 20 22 11 12 1002.5 1002.5 -
01/01:00am 15.1 12.2 12.4 84 1.5 W 19 24 10 13 1002.2 1002.2 -
01/12:30am 16.3 13.6 13.4 83 1.6 W 20 33 11 18 1002.0 1002.0 -
01/12:00am 17.5 15.3 16.0 91 0.9 W 22 28 12 15 1002.1 1002.1 -
 
Date/Time
EDT
Temp
°C
App
Temp
°C
Dew
Point
Rel
Hum
%
Delta-T
°C
Wind Press
QNH
hPa
Press
MSL
hPa
Rain
since 9 am
mm
Dir
 
Spd
km/h
Gust
km/h
Spd
kts
Gust
kts
28/11:43pm 18.3 16.3 17.3 94 0.6 WNW 24 32 13 17 1002.0 1002.0 -
28/11:30pm 18.5 15.5 17.7 95 0.5 WNW 30 35 16 19 1002.1 1002.1 -
28/11:00pm 18.5 15.3 18.5 100 0.0 NW 33 43 18 23 1002.1 1002.1 -
28/10:42pm 18.6 15.6 18.6 100 0.0 NW 32 43 17 23 1002.0 1002.0 -
28/10:30pm 18.6 15.6 18.6 100 0.0 NW 32 41 17 22 1002.1 1002.1 -
28/10:27pm 18.7 15.5 18.7 100 0.0 NW 33 44 18 24 1002.1 1002.1 -
28/10:00pm 18.8 17.3 18.6 99 0.1 NW 24 32 13 17 1001.5 1001.5 -
28/09:52pm 18.9 17.5 18.7 99 0.1 WNW 24 30 13 16 1002.0 1002.0 -
28/09:51pm 18.9 17.5 18.7 99 0.1 WNW 24 30 13 16 1002.0 1002.0 -
28/09:30pm 18.9 17.5 18.7 99 0.1 NW 24 30 13 16 1002.0 1002.0 -
28/09:02pm 18.8 16.9 18.6 99 0.1 NW 26 33 14 18 1001.5 1001.5 -
28/09:00pm 18.8 17.3 18.6 99 0.1 NW 24 32 13 17 1001.4 1001.4 -
28/08:45pm 18.7 17.5 18.5 99 0.1 NW 22 28 12 15 1000.7 1000.7 -
28/08:30pm 18.7 18.0 18.7 100 0.0 NNW 20 30 11 16 1000.7 1000.7 -
28/08:03pm 18.9 18.5 18.9 100 0.0 NNW 19 24 10 13 1001.0 1001.0 -
28/08:02pm 18.9 18.9 18.9 100 0.0 NNW 17 22 9 12 1001.0 1001.0 -
28/08:00pm 18.9 18.9 18.9 100 0.0 NNW 17 22 9 12 1001.0 1001.0 -
28/07:41pm 19.1 18.6 18.6 97 0.3 NW 19 26 10 14 1001.1 1001.1 -
28/07:30pm 19.3 19.9 18.6 96 0.4 NNW 13 20 7 11 1001.0 1001.0 -
28/07:00pm 19.2 20.1 18.5 96 0.4 N 11 13 6 7 1000.8 1000.8 -
28/06:30pm 19.1 20.4 18.4 96 0.4 N 9 11 5 6 1001.0 1001.0 -
28/06:00pm 18.7 19.8 18.0 96 0.4 NW 9 11 5 6 1001.3 1001.3 -
28/05:30pm 19.0 19.7 18.0 94 0.6 WNW 11 13 6 7 1001.5 1001.5 -
28/05:23pm 19.0 20.2 18.2 95 0.5 WNW 9 13 5 7 1001.6 1001.6 -
28/05:00pm 18.5 18.9 18.2 98 0.2 WNW 13 15 7 8 1001.9 1001.9 -
28/04:30pm 18.7 18.0 18.7 100 0.0 NW 20 26 11 14 1002.1 1002.1 -
28/04:00pm 18.6 16.7 18.6 100 0.0 NNW 26 33 14 18 1002.3 1002.3 -
28/03:30pm 18.2 16.2 18.2 100 0.0 N 26 35 14 19 1002.4 1002.4 -
28/03:26pm 18.3 16.3 18.3 100 0.0 N 26 35 14 19 1002.5 1002.5 -
28/03:00pm 17.8 17.3 17.8 100 0.0 NNE 17 22 9 12 1003.0 1003.0 -
28/02:42pm 17.7 16.7 17.5 99 0.1 NNE 19 22 10 12 1003.4 1003.4 -
28/02:30pm 17.7 16.6 17.4 98 0.2 NNE 19 24 10 13 1003.6 1003.6 -
28/02:00pm 17.7 17.7 16.2 91 0.9 NE 11 13 6 7 1004.2 1004.2 -
28/01:32pm 17.4 17.1 15.4 88 1.2 NNE 11 13 6 7 1004.6 1004.6 -
28/01:30pm 17.4 17.1 15.4 88 1.2 NNE 11 13 6 7 1004.7 1004.7 -
28/01:00pm 17.6 17.3 14.5 82 1.8 NNE 9 13 5 7 1005.3 1005.3 -
28/12:30pm 17.7 17.2 13.8 78 2.2 NNE 9 13 5 7 1005.5 1005.5 -
28/12:00pm 17.5 16.4 13.2 76 2.4 N 11 13 6 7 1005.9 1005.9 -
28/11:30am 17.5 15.9 12.8 74 2.6 N 13 17 7 9 1006.2 1006.2 -
28/11:00am 17.2 15.8 12.3 73 2.7 NNE 11 17 6 9 1006.5 1006.5 -
28/10:30am 17.7 16.1 12.8 73 2.7 NNE 13 17 7 9 1006.6 1006.6 -
28/10:00am 17.9 16.1 13.4 75 2.5 NNE 15 20 8 11 1007.0 1007.0 -
28/09:30am 16.8 16.3 12.5 76 2.4 NNE 7 13 4 7 1007.1 1007.1 -
28/09:00am 15.8 14.7 13.1 84 1.5 SE 11 15 6 8 1007.0 1007.0 -
28/08:30am 14.9 13.2 12.4 85 1.4 S 13 15 7 8 1007.2 1007.2 -
28/08:00am 14.1 12.3 12.0 87 1.1 SSE 13 17 7 9 1007.2 1007.2 -
28/07:30am 13.3 11.3 11.4 88 1.0 S 13 17 7 9 1007.1 1007.1 -
28/07:00am 12.9 10.4 11.1 89 0.9 SSE 15 19 8 10 1007.1 1007.1 -
28/06:30am 12.9 10.4 11.0 88 1.0 SSE 15 17 8 9 1007.2 1007.2 -
28/06:00am 12.8 9.9 10.9 88 1.0 S 17 20 9 11 1007.5 1007.5 -
28/05:30am 12.6 9.6 10.7 88 1.0 SSE 17 20 9 11 1007.4 1007.4 -
28/05:00am 13.0 10.5 11.1 88 1.0 SSE 15 17 8 9 1007.5 1007.5 -
28/04:30am 12.5 9.6 10.9 90 0.8 SSE 17 19 9 10 1007.9 1007.9 -
28/04:00am 12.1 11.1 10.3 89 0.9 S 6 15 3 8 1008.0 1008.0 -
28/03:30am 12.5 10.3 10.7 89 0.9 S 13 17 7 9 1008.4 1008.4 -
28/03:00am 12.2 9.5 10.3 88 1.0 S 15 19 8 10 1008.4 1008.4 -
28/02:30am 12.8 10.1 10.5 86 1.2 S 15 19 8 10 1008.8 1008.8 -
28/02:00am 13.2 10.2 10.6 84 1.4 SSE 17 20 9 11 1008.8 1008.8 -
28/01:30am 13.9 10.9 10.7 81 1.7 SSE 17 20 9 11 1009.0 1009.0 -
28/01:00am 13.5 10.5 10.5 82 1.6 SSE 17 19 9 10 1008.9 1008.9 -
28/12:30am 13.0 10.2 10.0 82 1.5 S 15 19 8 10 1009.2 1009.2 -
28/12:00am 13.2 10.7 9.8 80 1.7 S 13 15 7 8 1009.2 1009.2 -
 
Date/Time
EDT
Temp
°C
App
Temp
°C
Dew
Point
Rel
Hum
%
Delta-T
°C
Wind Press
QNH
hPa
Press
MSL
hPa
Rain
since 9 am
mm
Dir
 
Spd
km/h
Gust
km/h
Spd
kts
Gust
kts
27/11:30pm 13.7 11.1 9.4 75 2.2 S 13 15 7 8 1009.5 1009.5 -
27/11:00pm 12.9 10.3 9.4 79 1.8 SSE 13 15 7 8 1009.2 1009.2 -
27/10:30pm 13.2 11.3 10.4 83 1.5 SSE 11 15 6 8 1009.5 1009.5 -
27/10:00pm 13.4 11.8 10.2 81 1.7 SSE 9 13 5 7 1009.5 1009.5 -
27/09:30pm 14.1 12.1 10.3 78 2.0 SSE 11 13 6 7 1009.0 1009.0 -
27/09:00pm 14.1 12.3 9.5 74 2.4 S 9 11 5 6 1008.9 1008.9 -
27/08:30pm 16.1 14.6 10.6 70 2.9 E 9 11 5 6 1008.5 1008.5 -
27/08:00pm 16.9 15.3 10.1 64 3.6 E 9 11 5 6 1008.1 1008.1 -
27/07:30pm 19.4 18.4 10.4 56 4.8 ESE 6 7 3 4 1007.7 1007.7 -
27/07:00pm 19.8 17.9 10.5 55 5.0 S 11 13 6 7 1007.8 1007.8 -
27/06:30pm 19.7 18.9 11.2 58 4.7 S 6 7 3 4 1007.7 1007.7 -
27/06:00pm 19.9 18.9 10.9 56 4.9 WNW 7 11 4 6 1007.8 1007.8 -
27/05:30pm 19.7 19.9 12.0 61 4.3 SW 2 9 1 5 1007.7 1007.7 -
27/05:00pm 18.1 17.9 10.5 61 4.1 N 2 7 1 4 1008.2 1008.2 -
27/04:30pm 17.7 15.9 8.0 53 4.9 NNW 7 11 4 6 1008.2 1008.2 -
27/04:00pm 17.8 16.8 12.3 70 3.0 NE 9 15 5 8 1008.1 1008.1 -
27/03:30pm 17.5 16.5 12.4 72 2.8 NNE 9 13 5 7 1008.6 1008.6 -
27/03:00pm 16.7 15.5 11.6 72 2.8 NE 9 15 5 8 1008.9 1008.9 -
27/02:30pm 16.9 15.1 12.0 73 2.7 NE 13 19 7 10 1009.2 1009.2 -
27/02:00pm 17.3 14.9 11.3 68 3.3 N 15 19 8 10 1009.3 1009.3 -
27/01:30pm 17.5 15.3 12.0 70 3.0 NNW 15 20 8 11 1009.2 1009.2 -
27/01:00pm 17.9 15.2 11.7 67 3.4 NNW 17 24 9 13 1009.5 1009.5 -
27/12:30pm 17.0 14.1 11.1 68 3.2 NNW 17 24 9 13 1009.9 1009.9 -
27/12:00pm 17.5 13.7 11.1 66 3.5 N 22 28 12 15 1009.8 1009.8 -
27/11:30am 17.9 13.9 10.3 61 4.1 N 22 28 12 15 1009.9 1009.9 -
27/11:00am 17.9 14.4 10.8 63 3.8 N 20 26 11 14 1010.1 1010.1 -
27/10:30am 18.0 14.3 12.7 71 3.0 NE 24 30 13 16 1010.1 1010.1 -
27/10:24am 18.2 14.6 14.3 78 2.2 NE 26 33 14 18 1010.1 1010.1 -
27/10:00am 18.1 15.8 14.6 80 2.0 NE 20 28 11 15 1010.3 1010.3 -
27/09:41am 17.7 16.7 14.6 82 1.8 ENE 13 20 7 11 1010.2 1010.2 -
27/09:30am 17.1 16.2 13.8 81 1.9 E 11 15 6 8 1010.2 1010.2 -
27/09:00am 15.8 14.1 12.5 81 1.8 SE 13 19 7 10 1010.1 1010.1 -
27/08:30am 15.7 13.4 11.9 78 2.1 SSE 15 22 8 12 1009.9 1009.9 -
27/08:11am 15.3 12.8 10.9 75 2.3 SSE 15 19 8 10 1010.0 1010.0 -
27/08:00am 15.0 12.0 10.8 76 2.2 SSE 17 24 9 13 1009.8 1009.8 -
27/07:49am 14.8 12.3 11.0 78 2.0 SSE 15 20 8 11 1010.1 1010.1 -
27/07:48am 14.7 12.2 10.9 78 2.0 SSE 15 20 8 11 1010.1 1010.1 -

Other Formats:

Comma delimited format used in spreadsheet applications
http://www.bom.gov.au/fwo/IDT60801/IDT60801.95960.axf

JavaScript Object Notation format (JSON) in row-major order
http://www.bom.gov.au/fwo/IDT60801/IDT60801.95960.json